sensor_id;sensor_type;location;lat;lon;timestamp;temperature;humidity
44063;DHT22;29727;47.606;19.130;2023-07-16T00:00:28;25.40;73.20
44063;DHT22;29727;47.606;19.130;2023-07-16T00:02:54;25.30;72.60
44063;DHT22;29727;47.606;19.130;2023-07-16T00:05:19;25.40;73.20
44063;DHT22;29727;47.606;19.130;2023-07-16T00:07:45;25.30;73.20
44063;DHT22;29727;47.606;19.130;2023-07-16T00:10:11;25.30;73.50
44063;DHT22;29727;47.606;19.130;2023-07-16T00:12:36;25.30;73.20
44063;DHT22;29727;47.606;19.130;2023-07-16T00:15:02;25.30;74.00
44063;DHT22;29727;47.606;19.130;2023-07-16T00:17:28;25.30;74.10
44063;DHT22;29727;47.606;19.130;2023-07-16T00:19:54;25.20;74.20
44063;DHT22;29727;47.606;19.130;2023-07-16T00:22:19;25.20;74.20
44063;DHT22;29727;47.606;19.130;2023-07-16T00:24:45;25.20;74.60
44063;DHT22;29727;47.606;19.130;2023-07-16T00:27:11;25.10;74.20
44063;DHT22;29727;47.606;19.130;2023-07-16T00:29:36;25.10;74.80
44063;DHT22;29727;47.606;19.130;2023-07-16T00:32:02;25.10;75.10
44063;DHT22;29727;47.606;19.130;2023-07-16T00:34:28;25.10;75.40
44063;DHT22;29727;47.606;19.130;2023-07-16T00:36:53;25.00;75.40
44063;DHT22;29727;47.606;19.130;2023-07-16T00:39:19;25.00;75.90
44063;DHT22;29727;47.606;19.130;2023-07-16T00:41:45;25.00;75.70
44063;DHT22;29727;47.606;19.130;2023-07-16T00:44:10;24.90;75.40
44063;DHT22;29727;47.606;19.130;2023-07-16T00:46:36;24.90;75.90
44063;DHT22;29727;47.606;19.130;2023-07-16T00:49:02;24.90;75.90
44063;DHT22;29727;47.606;19.130;2023-07-16T00:51:28;24.90;76.10
44063;DHT22;29727;47.606;19.130;2023-07-16T00:53:54;24.80;75.80
44063;DHT22;29727;47.606;19.130;2023-07-16T00:56:21;24.80;76.40
44063;DHT22;29727;47.606;19.130;2023-07-16T00:58:46;24.70;75.90
44063;DHT22;29727;47.606;19.130;2023-07-16T01:01:12;24.70;76.40
44063;DHT22;29727;47.606;19.130;2023-07-16T01:03:38;24.70;76.60
44063;DHT22;29727;47.606;19.130;2023-07-16T01:08:48;24.70;76.50
44063;DHT22;29727;47.606;19.130;2023-07-16T01:11:15;24.60;75.80
44063;DHT22;29727;47.606;19.130;2023-07-16T01:13:42;24.70;76.00
44063;DHT22;29727;47.606;19.130;2023-07-16T01:16:21;24.60;76.50
44063;DHT22;29727;47.606;19.130;2023-07-16T01:18:48;24.60;76.40
44063;DHT22;29727;47.606;19.130;2023-07-16T01:21:14;24.60;76.40
44063;DHT22;29727;47.606;19.130;2023-07-16T01:31:56;24.50;75.90
44063;DHT22;29727;47.606;19.130;2023-07-16T01:34:25;24.50;75.80
44063;DHT22;29727;47.606;19.130;2023-07-16T01:36:52;24.50;76.00
44063;DHT22;29727;47.606;19.130;2023-07-16T01:39:18;24.50;75.80
44063;DHT22;29727;47.606;19.130;2023-07-16T01:41:44;24.40;76.00
44063;DHT22;29727;47.606;19.130;2023-07-16T01:44:10;24.40;75.50
44063;DHT22;29727;47.606;19.130;2023-07-16T01:46:35;24.40;76.00
44063;DHT22;29727;47.606;19.130;2023-07-16T01:49:01;24.40;75.90
44063;DHT22;29727;47.606;19.130;2023-07-16T01:51:27;24.30;76.10
44063;DHT22;29727;47.606;19.130;2023-07-16T01:53:52;24.30;76.10
44063;DHT22;29727;47.606;19.130;2023-07-16T01:56:18;24.30;76.10
44063;DHT22;29727;47.606;19.130;2023-07-16T01:58:43;24.30;76.10
44063;DHT22;29727;47.606;19.130;2023-07-16T02:01:09;24.30;76.40
44063;DHT22;29727;47.606;19.130;2023-07-16T02:03:35;24.20;75.80
44063;DHT22;29727;47.606;19.130;2023-07-16T02:06:00;24.10;76.30
44063;DHT22;29727;47.606;19.130;2023-07-16T02:08:27;24.20;76.30
44063;DHT22;29727;47.606;19.130;2023-07-16T02:10:53;24.10;75.90
44063;DHT22;29727;47.606;19.130;2023-07-16T02:13:18;24.10;76.50
44063;DHT22;29727;47.606;19.130;2023-07-16T02:15:44;24.10;76.50
44063;DHT22;29727;47.606;19.130;2023-07-16T02:18:10;24.10;75.80
44063;DHT22;29727;47.606;19.130;2023-07-16T02:20:36;24.00;76.30
44063;DHT22;29727;47.606;19.130;2023-07-16T02:23:01;24.00;76.30
44063;DHT22;29727;47.606;19.130;2023-07-16T02:25:27;24.00;76.00
44063;DHT22;29727;47.606;19.130;2023-07-16T02:27:53;23.90;75.60
44063;DHT22;29727;47.606;19.130;2023-07-16T02:30:18;23.90;75.60
44063;DHT22;29727;47.606;19.130;2023-07-16T02:32:44;23.90;75.50
44063;DHT22;29727;47.606;19.130;2023-07-16T02:35:10;23.90;75.60
44063;DHT22;29727;47.606;19.130;2023-07-16T02:37:36;23.80;75.40
44063;DHT22;29727;47.606;19.130;2023-07-16T02:40:01;23.80;75.50
44063;DHT22;29727;47.606;19.130;2023-07-16T02:42:28;23.70;75.50
44063;DHT22;29727;47.606;19.130;2023-07-16T02:44:54;23.70;75.30
44063;DHT22;29727;47.606;19.130;2023-07-16T02:47:19;23.70;75.60
44063;DHT22;29727;47.606;19.130;2023-07-16T02:49:45;23.60;75.60
44063;DHT22;29727;47.606;19.130;2023-07-16T02:52:11;23.60;75.70
44063;DHT22;29727;47.606;19.130;2023-07-16T02:54:36;23.60;75.70
44063;DHT22;29727;47.606;19.130;2023-07-16T02:57:02;23.60;75.70
44063;DHT22;29727;47.606;19.130;2023-07-16T02:59:28;23.50;75.80
44063;DHT22;29727;47.606;19.130;2023-07-16T03:01:54;23.50;75.80
44063;DHT22;29727;47.606;19.130;2023-07-16T03:04:20;23.50;76.00
44063;DHT22;29727;47.606;19.130;2023-07-16T03:06:46;23.40;76.10
44063;DHT22;29727;47.606;19.130;2023-07-16T03:09:11;23.40;76.20
44063;DHT22;29727;47.606;19.130;2023-07-16T03:11:37;23.30;75.50
44063;DHT22;29727;47.606;19.130;2023-07-16T03:14:03;23.30;76.10
44063;DHT22;29727;47.606;19.130;2023-07-16T03:16:28;23.30;76.10
44063;DHT22;29727;47.606;19.130;2023-07-16T03:18:54;23.20;75.90
44063;DHT22;29727;47.606;19.130;2023-07-16T03:21:20;23.20;76.10
44063;DHT22;29727;47.606;19.130;2023-07-16T03:23:45;23.20;76.20
44063;DHT22;29727;47.606;19.130;2023-07-16T03:26:11;23.20;76.40
44063;DHT22;29727;47.606;19.130;2023-07-16T03:28:36;23.10;76.40
44063;DHT22;29727;47.606;19.130;2023-07-16T03:31:02;23.10;76.00
44063;DHT22;29727;47.606;19.130;2023-07-16T03:33:28;23.10;76.60
44063;DHT22;29727;47.606;19.130;2023-07-16T03:35:53;23.10;76.90
44063;DHT22;29727;47.606;19.130;2023-07-16T03:38:19;23.10;77.20
44063;DHT22;29727;47.606;19.130;2023-07-16T03:40:48;23.00;77.30
44063;DHT22;29727;47.606;19.130;2023-07-16T03:43:15;23.00;77.50
44063;DHT22;29727;47.606;19.130;2023-07-16T03:45:42;23.00;77.60
44063;DHT22;29727;47.606;19.130;2023-07-16T03:48:07;23.00;77.70
44063;DHT22;29727;47.606;19.130;2023-07-16T03:50:34;23.00;78.10
44063;DHT22;29727;47.606;19.130;2023-07-16T03:53:00;23.00;78.10
44063;DHT22;29727;47.606;19.130;2023-07-16T03:55:26;23.00;78.20
44063;DHT22;29727;47.606;19.130;2023-07-16T03:57:52;23.00;78.30
44063;DHT22;29727;47.606;19.130;2023-07-16T04:00:17;23.00;78.50
44063;DHT22;29727;47.606;19.130;2023-07-16T04:02:43;23.10;78.60
44063;DHT22;29727;47.606;19.130;2023-07-16T04:05:09;23.10;78.70
44063;DHT22;29727;47.606;19.130;2023-07-16T04:07:35;23.10;78.50
44063;DHT22;29727;47.606;19.130;2023-07-16T04:10:01;23.10;78.00
44063;DHT22;29727;47.606;19.130;2023-07-16T04:12:26;23.10;78.10
44063;DHT22;29727;47.606;19.130;2023-07-16T04:14:57;23.10;78.80
44063;DHT22;29727;47.606;19.130;2023-07-16T04:17:23;23.10;78.90
44063;DHT22;29727;47.606;19.130;2023-07-16T04:19:49;23.10;78.70
44063;DHT22;29727;47.606;19.130;2023-07-16T04:22:15;23.20;77.80
44063;DHT22;29727;47.606;19.130;2023-07-16T04:24:41;23.20;77.10
44063;DHT22;29727;47.606;19.130;2023-07-16T04:27:06;23.20;77.00
44063;DHT22;29727;47.606;19.130;2023-07-16T04:29:32;23.20;76.80
44063;DHT22;29727;47.606;19.130;2023-07-16T04:31:58;23.20;76.00
44063;DHT22;29727;47.606;19.130;2023-07-16T04:34:23;23.20;76.30
44063;DHT22;29727;47.606;19.130;2023-07-16T04:36:49;23.20;76.60
44063;DHT22;29727;47.606;19.130;2023-07-16T04:39:15;23.10;77.30
44063;DHT22;29727;47.606;19.130;2023-07-16T04:41:40;23.10;77.90
44063;DHT22;29727;47.606;19.130;2023-07-16T04:44:06;23.10;78.60
44063;DHT22;29727;47.606;19.130;2023-07-16T04:46:32;23.10;78.60
44063;DHT22;29727;47.606;19.130;2023-07-16T04:48:58;23.10;78.50
44063;DHT22;29727;47.606;19.130;2023-07-16T04:51:24;23.10;77.70
44063;DHT22;29727;47.606;19.130;2023-07-16T04:53:49;23.00;78.20
44063;DHT22;29727;47.606;19.130;2023-07-16T04:56:15;23.10;78.30
44063;DHT22;29727;47.606;19.130;2023-07-16T04:58:42;23.10;78.10
44063;DHT22;29727;47.606;19.130;2023-07-16T05:01:08;23.10;77.30
44063;DHT22;29727;47.606;19.130;2023-07-16T05:03:34;23.10;77.60
44063;DHT22;29727;47.606;19.130;2023-07-16T05:06:00;23.10;76.70
44063;DHT22;29727;47.606;19.130;2023-07-16T05:08:26;23.20;77.50
44063;DHT22;29727;47.606;19.130;2023-07-16T05:10:52;23.20;76.90
44063;DHT22;29727;47.606;19.130;2023-07-16T05:13:17;23.20;77.20
44063;DHT22;29727;47.606;19.130;2023-07-16T05:15:43;23.30;76.50
44063;DHT22;29727;47.606;19.130;2023-07-16T05:18:09;23.30;76.80
44063;DHT22;29727;47.606;19.130;2023-07-16T05:20:35;23.40;76.70
44063;DHT22;29727;47.606;19.130;2023-07-16T05:23:01;23.50;76.10
44063;DHT22;29727;47.606;19.130;2023-07-16T05:25:26;23.50;76.20
44063;DHT22;29727;47.606;19.130;2023-07-16T05:27:55;23.60;75.40
44063;DHT22;29727;47.606;19.130;2023-07-16T05:30:23;23.60;74.90
44063;DHT22;29727;47.606;19.130;2023-07-16T05:32:49;23.60;74.40
44063;DHT22;29727;47.606;19.130;2023-07-16T05:35:17;23.70;74.10
44063;DHT22;29727;47.606;19.130;2023-07-16T05:37:42;23.70;74.20
44063;DHT22;29727;47.606;19.130;2023-07-16T05:40:08;23.70;74.40
44063;DHT22;29727;47.606;19.130;2023-07-16T05:42:34;23.80;74.20
44063;DHT22;29727;47.606;19.130;2023-07-16T05:45:00;23.80;74.60
44063;DHT22;29727;47.606;19.130;2023-07-16T05:47:26;23.90;75.10
44063;DHT22;29727;47.606;19.130;2023-07-16T05:49:51;24.00;74.30
44063;DHT22;29727;47.606;19.130;2023-07-16T05:52:17;24.00;75.10
44063;DHT22;29727;47.606;19.130;2023-07-16T05:54:46;24.10;74.50
44063;DHT22;29727;47.606;19.130;2023-07-16T05:57:11;24.20;73.20
44063;DHT22;29727;47.606;19.130;2023-07-16T05:59:37;24.20;73.50
44063;DHT22;29727;47.606;19.130;2023-07-16T06:02:03;24.30;73.80
44063;DHT22;29727;47.606;19.130;2023-07-16T06:04:29;24.40;74.20
44063;DHT22;29727;47.606;19.130;2023-07-16T06:06:56;24.50;73.10
44063;DHT22;29727;47.606;19.130;2023-07-16T06:09:22;24.70;72.60
44063;DHT22;29727;47.606;19.130;2023-07-16T06:11:48;24.70;73.00
44063;DHT22;29727;47.606;19.130;2023-07-16T06:14:14;24.80;72.40
44063;DHT22;29727;47.606;19.130;2023-07-16T06:16:39;24.90;72.60
44063;DHT22;29727;47.606;19.130;2023-07-16T06:19:05;25.00;72.10
44063;DHT22;29727;47.606;19.130;2023-07-16T06:21:31;25.10;71.60
44063;DHT22;29727;47.606;19.130;2023-07-16T06:23:56;25.20;71.70
44063;DHT22;29727;47.606;19.130;2023-07-16T06:26:22;25.30;70.60
44063;DHT22;29727;47.606;19.130;2023-07-16T06:28:47;25.40;71.10
44063;DHT22;29727;47.606;19.130;2023-07-16T06:31:16;25.50;70.50
44063;DHT22;29727;47.606;19.130;2023-07-16T06:33:42;25.50;70.50
44063;DHT22;29727;47.606;19.130;2023-07-16T06:36:07;25.60;70.80
44063;DHT22;29727;47.606;19.130;2023-07-16T06:38:33;25.70;70.00
44063;DHT22;29727;47.606;19.130;2023-07-16T06:40:58;25.80;70.10
44063;DHT22;29727;47.606;19.130;2023-07-16T06:43:24;25.90;69.20
44063;DHT22;29727;47.606;19.130;2023-07-16T06:45:50;26.00;69.30
44063;DHT22;29727;47.606;19.130;2023-07-16T06:48:18;26.00;68.90
44063;DHT22;29727;47.606;19.130;2023-07-16T06:50:44;26.10;68.80
44063;DHT22;29727;47.606;19.130;2023-07-16T06:53:10;26.20;67.90
44063;DHT22;29727;47.606;19.130;2023-07-16T06:55:37;26.20;67.80
44063;DHT22;29727;47.606;19.130;2023-07-16T06:58:02;26.30;68.30
44063;DHT22;29727;47.606;19.130;2023-07-16T07:00:28;26.30;68.60
44063;DHT22;29727;47.606;19.130;2023-07-16T07:02:54;26.40;68.10
44063;DHT22;29727;47.606;19.130;2023-07-16T07:05:20;26.40;67.50
44063;DHT22;29727;47.606;19.130;2023-07-16T07:07:46;26.60;66.80
44063;DHT22;29727;47.606;19.130;2023-07-16T07:10:12;26.70;66.30
44063;DHT22;29727;47.606;19.130;2023-07-16T07:12:38;26.80;65.80
44063;DHT22;29727;47.606;19.130;2023-07-16T07:15:07;26.80;65.80
44063;DHT22;29727;47.606;19.130;2023-07-16T07:20:03;27.00;64.80
44063;DHT22;29727;47.606;19.130;2023-07-16T07:22:29;27.10;65.80
44063;DHT22;29727;47.606;19.130;2023-07-16T07:24:55;27.10;64.90
44063;DHT22;29727;47.606;19.130;2023-07-16T07:27:20;27.20;65.80
44063;DHT22;29727;47.606;19.130;2023-07-16T07:29:46;27.30;66.60
44063;DHT22;29727;47.606;19.130;2023-07-16T07:32:12;27.40;66.90
44063;DHT22;29727;47.606;19.130;2023-07-16T07:34:39;27.60;64.60
44063;DHT22;29727;47.606;19.130;2023-07-16T07:37:05;27.70;64.50
44063;DHT22;29727;47.606;19.130;2023-07-16T07:39:30;27.80;63.90
44063;DHT22;29727;47.606;19.130;2023-07-16T07:41:56;27.90;62.70
44063;DHT22;29727;47.606;19.130;2023-07-16T07:44:22;28.00;63.00
44063;DHT22;29727;47.606;19.130;2023-07-16T07:46:47;28.10;63.10
44063;DHT22;29727;47.606;19.130;2023-07-16T07:49:13;28.20;63.50
44063;DHT22;29727;47.606;19.130;2023-07-16T07:51:38;28.40;62.10
44063;DHT22;29727;47.606;19.130;2023-07-16T07:54:04;28.50;61.30
44063;DHT22;29727;47.606;19.130;2023-07-16T07:56:30;28.60;61.40
44063;DHT22;29727;47.606;19.130;2023-07-16T07:58:56;28.70;61.50
44063;DHT22;29727;47.606;19.130;2023-07-16T08:01:21;28.80;60.20
44063;DHT22;29727;47.606;19.130;2023-07-16T08:03:47;28.90;60.00
44063;DHT22;29727;47.606;19.130;2023-07-16T08:06:12;28.90;60.50
44063;DHT22;29727;47.606;19.130;2023-07-16T08:08:38;29.00;60.60
44063;DHT22;29727;47.606;19.130;2023-07-16T08:11:04;29.20;61.50
44063;DHT22;29727;47.606;19.130;2023-07-16T08:13:29;29.20;59.40
44063;DHT22;29727;47.606;19.130;2023-07-16T08:15:55;29.40;59.30
44063;DHT22;29727;47.606;19.130;2023-07-16T08:18:20;29.50;59.70
44063;DHT22;29727;47.606;19.130;2023-07-16T08:20:47;29.60;58.70
44063;DHT22;29727;47.606;19.130;2023-07-16T08:23:12;29.80;57.40
44063;DHT22;29727;47.606;19.130;2023-07-16T08:25:38;29.90;57.00
44063;DHT22;29727;47.606;19.130;2023-07-16T08:28:04;30.10;58.50
44063;DHT22;29727;47.606;19.130;2023-07-16T08:30:31;30.20;57.20
44063;DHT22;29727;47.606;19.130;2023-07-16T08:32:57;30.40;56.00
44063;DHT22;29727;47.606;19.130;2023-07-16T08:35:23;30.50;56.10
44063;DHT22;29727;47.606;19.130;2023-07-16T08:37:48;30.50;55.50
44063;DHT22;29727;47.606;19.130;2023-07-16T08:40:14;30.70;55.60
44063;DHT22;29727;47.606;19.130;2023-07-16T08:42:40;30.80;55.50
44063;DHT22;29727;47.606;19.130;2023-07-16T08:45:10;31.00;56.00
44063;DHT22;29727;47.606;19.130;2023-07-16T08:47:36;31.10;54.40
44063;DHT22;29727;47.606;19.130;2023-07-16T08:50:03;31.30;53.10
44063;DHT22;29727;47.606;19.130;2023-07-16T08:52:29;31.40;52.50
44063;DHT22;29727;47.606;19.130;2023-07-16T08:54:55;31.60;53.50
44063;DHT22;29727;47.606;19.130;2023-07-16T08:57:21;31.70;52.70
44063;DHT22;29727;47.606;19.130;2023-07-16T08:59:48;31.90;51.90
44063;DHT22;29727;47.606;19.130;2023-07-16T09:02:17;32.00;54.00
44063;DHT22;29727;47.606;19.130;2023-07-16T09:04:43;32.20;51.10
44063;DHT22;29727;47.606;19.130;2023-07-16T09:07:09;32.20;50.60
44063;DHT22;29727;47.606;19.130;2023-07-16T09:09:35;32.40;50.00
44063;DHT22;29727;47.606;19.130;2023-07-16T09:12:02;32.40;49.60
44063;DHT22;29727;47.606;19.130;2023-07-16T09:14:27;32.50;51.80
44063;DHT22;29727;47.606;19.130;2023-07-16T09:16:53;32.60;51.00
44063;DHT22;29727;47.606;19.130;2023-07-16T09:19:19;32.70;52.10
44063;DHT22;29727;47.606;19.130;2023-07-16T09:21:49;32.80;50.90
44063;DHT22;29727;47.606;19.130;2023-07-16T09:24:15;32.90;51.00
44063;DHT22;29727;47.606;19.130;2023-07-16T09:26:54;33.10;51.60
44063;DHT22;29727;47.606;19.130;2023-07-16T09:29:25;33.20;49.60
44063;DHT22;29727;47.606;19.130;2023-07-16T09:32:02;33.20;49.60
44063;DHT22;29727;47.606;19.130;2023-07-16T09:34:29;33.30;50.40
44063;DHT22;29727;47.606;19.130;2023-07-16T09:36:58;33.30;49.00
44063;DHT22;29727;47.606;19.130;2023-07-16T09:39:26;33.40;50.20
44063;DHT22;29727;47.606;19.130;2023-07-16T09:41:52;33.40;48.90
44063;DHT22;29727;47.606;19.130;2023-07-16T09:44:18;33.40;49.50
44063;DHT22;29727;47.606;19.130;2023-07-16T09:46:45;33.40;49.80
44063;DHT22;29727;47.606;19.130;2023-07-16T09:49:11;33.40;50.30
44063;DHT22;29727;47.606;19.130;2023-07-16T09:51:38;33.40;50.50
44063;DHT22;29727;47.606;19.130;2023-07-16T09:54:05;33.50;52.80
44063;DHT22;29727;47.606;19.130;2023-07-16T09:56:36;33.50;51.40
44063;DHT22;29727;47.606;19.130;2023-07-16T09:59:07;33.60;52.20
44063;DHT22;29727;47.606;19.130;2023-07-16T10:01:37;33.70;52.20
44063;DHT22;29727;47.606;19.130;2023-07-16T10:04:18;33.70;52.90
44063;DHT22;29727;47.606;19.130;2023-07-16T10:06:58;33.90;51.10
44063;DHT22;29727;47.606;19.130;2023-07-16T10:09:39;34.10;50.30
44063;DHT22;29727;47.606;19.130;2023-07-16T10:12:16;34.10;51.20
44063;DHT22;29727;47.606;19.130;2023-07-16T10:14:45;34.20;51.00
44063;DHT22;29727;47.606;19.130;2023-07-16T10:17:23;34.20;49.50
44063;DHT22;29727;47.606;19.130;2023-07-16T10:25:00;34.30;49.90
44063;DHT22;29727;47.606;19.130;2023-07-16T10:27:27;34.30;48.40
44063;DHT22;29727;47.606;19.130;2023-07-16T10:29:54;34.40;50.10
44063;DHT22;29727;47.606;19.130;2023-07-16T10:32:20;34.40;50.10
44063;DHT22;29727;47.606;19.130;2023-07-16T10:34:46;34.50;50.10
44063;DHT22;29727;47.606;19.130;2023-07-16T10:37:12;34.70;49.30
44063;DHT22;29727;47.606;19.130;2023-07-16T10:39:49;34.70;47.80
44063;DHT22;29727;47.606;19.130;2023-07-16T10:42:16;34.70;48.40
44063;DHT22;29727;47.606;19.130;2023-07-16T10:44:43;34.80;51.30
44063;DHT22;29727;47.606;19.130;2023-07-16T10:47:17;34.90;48.30
44063;DHT22;29727;47.606;19.130;2023-07-16T10:49:44;34.90;49.70
44063;DHT22;29727;47.606;19.130;2023-07-16T10:52:10;35.00;48.10
44063;DHT22;29727;47.606;19.130;2023-07-16T10:54:35;35.10;48.20
44063;DHT22;29727;47.606;19.130;2023-07-16T10:57:03;35.10;48.00
44063;DHT22;29727;47.606;19.130;2023-07-16T10:59:29;35.20;49.30
44063;DHT22;29727;47.606;19.130;2023-07-16T11:01:55;35.20;48.90
44063;DHT22;29727;47.606;19.130;2023-07-16T11:04:20;35.30;49.60
44063;DHT22;29727;47.606;19.130;2023-07-16T11:06:46;35.30;47.60
44063;DHT22;29727;47.606;19.130;2023-07-16T11:09:12;35.50;45.10
44063;DHT22;29727;47.606;19.130;2023-07-16T11:11:38;35.50;45.70
44063;DHT22;29727;47.606;19.130;2023-07-16T11:14:06;35.60;47.00
44063;DHT22;29727;47.606;19.130;2023-07-16T11:16:36;35.70;45.80
44063;DHT22;29727;47.606;19.130;2023-07-16T11:19:06;35.70;46.60
44063;DHT22;29727;47.606;19.130;2023-07-16T11:21:36;35.80;45.20
44063;DHT22;29727;47.606;19.130;2023-07-16T11:24:17;35.90;45.60
44063;DHT22;29727;47.606;19.130;2023-07-16T11:26:52;35.80;45.30
44063;DHT22;29727;47.606;19.130;2023-07-16T11:29:17;35.80;46.80
44063;DHT22;29727;47.606;19.130;2023-07-16T11:31:43;35.70;47.60
44063;DHT22;29727;47.606;19.130;2023-07-16T11:34:15;35.60;48.70
44063;DHT22;29727;47.606;19.130;2023-07-16T11:36:41;35.60;48.20
44063;DHT22;29727;47.606;19.130;2023-07-16T11:39:07;35.60;48.50
44063;DHT22;29727;47.606;19.130;2023-07-16T11:41:33;35.80;47.30
44063;DHT22;29727;47.606;19.130;2023-07-16T11:44:01;35.90;46.00
44063;DHT22;29727;47.606;19.130;2023-07-16T11:46:31;36.10;45.40
44063;DHT22;29727;47.606;19.130;2023-07-16T11:48:59;36.10;44.90
44063;DHT22;29727;47.606;19.130;2023-07-16T11:51:24;36.20;43.80
44063;DHT22;29727;47.606;19.130;2023-07-16T11:53:50;36.30;43.70
44063;DHT22;29727;47.606;19.130;2023-07-16T11:56:16;36.40;44.60
44063;DHT22;29727;47.606;19.130;2023-07-16T11:58:41;36.50;45.10
44063;DHT22;29727;47.606;19.130;2023-07-16T12:01:07;36.50;42.10
44063;DHT22;29727;47.606;19.130;2023-07-16T12:03:33;36.60;43.10
44063;DHT22;29727;47.606;19.130;2023-07-16T12:05:59;36.70;43.80
44063;DHT22;29727;47.606;19.130;2023-07-16T12:08:25;36.80;42.80
44063;DHT22;29727;47.606;19.130;2023-07-16T12:10:50;36.90;42.20
44063;DHT22;29727;47.606;19.130;2023-07-16T12:13:16;36.90;41.40
44063;DHT22;29727;47.606;19.130;2023-07-16T12:15:41;37.00;42.50
44063;DHT22;29727;47.606;19.130;2023-07-16T12:18:07;37.00;42.10
44063;DHT22;29727;47.606;19.130;2023-07-16T12:20:34;37.00;42.30
44063;DHT22;29727;47.606;19.130;2023-07-16T12:23:01;37.00;43.00
44063;DHT22;29727;47.606;19.130;2023-07-16T12:25:31;37.10;42.10
44063;DHT22;29727;47.606;19.130;2023-07-16T12:27:57;37.20;41.90
44063;DHT22;29727;47.606;19.130;2023-07-16T12:30:24;37.20;41.60
44063;DHT22;29727;47.606;19.130;2023-07-16T12:32:50;37.30;41.50
44063;DHT22;29727;47.606;19.130;2023-07-16T12:35:16;37.40;44.20
44063;DHT22;29727;47.606;19.130;2023-07-16T12:37:42;37.40;41.40
44063;DHT22;29727;47.606;19.130;2023-07-16T12:40:07;37.50;41.50
44063;DHT22;29727;47.606;19.130;2023-07-16T12:42:34;37.60;41.30
44063;DHT22;29727;47.606;19.130;2023-07-16T12:45:01;37.70;41.90
44063;DHT22;29727;47.606;19.130;2023-07-16T12:47:27;37.80;41.70
44063;DHT22;29727;47.606;19.130;2023-07-16T12:49:52;37.90;42.70
44063;DHT22;29727;47.606;19.130;2023-07-16T12:52:18;38.00;41.80
44063;DHT22;29727;47.606;19.130;2023-07-16T12:54:44;38.00;41.40
44063;DHT22;29727;47.606;19.130;2023-07-16T12:57:09;37.90;41.50
44063;DHT22;29727;47.606;19.130;2023-07-16T12:59:35;37.90;41.30
44063;DHT22;29727;47.606;19.130;2023-07-16T13:02:00;37.70;41.70
44063;DHT22;29727;47.606;19.130;2023-07-16T13:04:29;37.50;40.50
44063;DHT22;29727;47.606;19.130;2023-07-16T13:06:55;37.50;41.00
44063;DHT22;29727;47.606;19.130;2023-07-16T13:09:23;37.30;42.00
44063;DHT22;29727;47.606;19.130;2023-07-16T13:11:49;37.20;42.50
44063;DHT22;29727;47.606;19.130;2023-07-16T13:14:16;37.10;43.00
44063;DHT22;29727;47.606;19.130;2023-07-16T13:16:42;37.00;42.40
44063;DHT22;29727;47.606;19.130;2023-07-16T13:19:08;37.00;43.40
44063;DHT22;29727;47.606;19.130;2023-07-16T13:21:33;36.90;42.70
44063;DHT22;29727;47.606;19.130;2023-07-16T13:23:59;36.80;44.80
44063;DHT22;29727;47.606;19.130;2023-07-16T13:26:25;36.70;43.90
44063;DHT22;29727;47.606;19.130;2023-07-16T13:28:50;36.70;44.00
44063;DHT22;29727;47.606;19.130;2023-07-16T13:31:17;36.60;46.60
44063;DHT22;29727;47.606;19.130;2023-07-16T13:33:43;36.60;45.20
44063;DHT22;29727;47.606;19.130;2023-07-16T13:36:09;36.60;44.50
44063;DHT22;29727;47.606;19.130;2023-07-16T13:38:34;36.60;45.30
44063;DHT22;29727;47.606;19.130;2023-07-16T13:41:00;36.50;44.90
44063;DHT22;29727;47.606;19.130;2023-07-16T13:43:26;36.50;45.80
44063;DHT22;29727;47.606;19.130;2023-07-16T13:45:51;36.50;47.50
44063;DHT22;29727;47.606;19.130;2023-07-16T13:48:17;36.50;44.30
44063;DHT22;29727;47.606;19.130;2023-07-16T13:50:42;36.50;44.10
44063;DHT22;29727;47.606;19.130;2023-07-16T13:53:08;36.50;44.10
44063;DHT22;29727;47.606;19.130;2023-07-16T13:55:34;36.60;43.70
44063;DHT22;29727;47.606;19.130;2023-07-16T13:57:59;36.60;43.30
44063;DHT22;29727;47.606;19.130;2023-07-16T14:00:25;36.60;42.80
44063;DHT22;29727;47.606;19.130;2023-07-16T14:02:51;36.60;42.30
44063;DHT22;29727;47.606;19.130;2023-07-16T14:05:17;36.60;43.80
44063;DHT22;29727;47.606;19.130;2023-07-16T14:07:42;36.50;44.00
44063;DHT22;29727;47.606;19.130;2023-07-16T14:10:08;36.40;43.40
44063;DHT22;29727;47.606;19.130;2023-07-16T14:12:34;36.40;44.10
44063;DHT22;29727;47.606;19.130;2023-07-16T14:15:00;36.30;44.90
44063;DHT22;29727;47.606;19.130;2023-07-16T14:17:26;36.30;44.50
44063;DHT22;29727;47.606;19.130;2023-07-16T14:19:51;36.20;45.10
44063;DHT22;29727;47.606;19.130;2023-07-16T14:22:18;36.10;45.00
44063;DHT22;29727;47.606;19.130;2023-07-16T14:24:43;36.10;45.00
44063;DHT22;29727;47.606;19.130;2023-07-16T14:27:09;36.10;45.90
44063;DHT22;29727;47.606;19.130;2023-07-16T14:29:35;36.00;46.70
44063;DHT22;29727;47.606;19.130;2023-07-16T14:32:01;36.00;45.90
44063;DHT22;29727;47.606;19.130;2023-07-16T14:34:27;36.00;46.20
44063;DHT22;29727;47.606;19.130;2023-07-16T14:36:53;36.00;46.60
44063;DHT22;29727;47.606;19.130;2023-07-16T14:39:18;36.00;46.70
44063;DHT22;29727;47.606;19.130;2023-07-16T14:41:44;36.00;44.60
44063;DHT22;29727;47.606;19.130;2023-07-16T14:44:10;36.00;44.40
44063;DHT22;29727;47.606;19.130;2023-07-16T14:46:36;35.90;44.70
44063;DHT22;29727;47.606;19.130;2023-07-16T14:49:03;35.90;45.20
44063;DHT22;29727;47.606;19.130;2023-07-16T14:51:28;35.90;45.40
44063;DHT22;29727;47.606;19.130;2023-07-16T14:53:56;35.80;47.40
44063;DHT22;29727;47.606;19.130;2023-07-16T14:56:23;35.90;44.90
44063;DHT22;29727;47.606;19.130;2023-07-16T14:58:48;35.80;47.10
44063;DHT22;29727;47.606;19.130;2023-07-16T15:01:14;35.80;47.60
44063;DHT22;29727;47.606;19.130;2023-07-16T15:03:40;35.90;45.90
44063;DHT22;29727;47.606;19.130;2023-07-16T15:06:06;35.90;45.60
44063;DHT22;29727;47.606;19.130;2023-07-16T15:08:32;35.90;44.90
44063;DHT22;29727;47.606;19.130;2023-07-16T15:10:58;35.90;45.10
44063;DHT22;29727;47.606;19.130;2023-07-16T15:13:24;35.90;45.10
44063;DHT22;29727;47.606;19.130;2023-07-16T15:15:53;35.90;44.30
44063;DHT22;29727;47.606;19.130;2023-07-16T15:18:19;35.90;45.00
44063;DHT22;29727;47.606;19.130;2023-07-16T15:20:46;35.90;45.30
44063;DHT22;29727;47.606;19.130;2023-07-16T15:23:12;35.90;45.20
44063;DHT22;29727;47.606;19.130;2023-07-16T15:25:41;36.00;44.80
44063;DHT22;29727;47.606;19.130;2023-07-16T15:28:06;35.90;45.40